Weather observations for the past three days for
Vavau International Airport
Imperial (Metric)
Date Time (+13) Wind (mph) Vis. (mi.) Weather Sky Cond. Temperature (ºF) Relative Humidity Wind Chill (°F) Heat Index (°F) Pressure Precipitation (in)
Air Dwpt 6 hour altimeter (in) sea level (mb) 1 hr 3 hr 6 hr
Max. Min.
01 05:00 Calm 0.00 A Few Clouds FEW014TCU 66.2 66.2 100% 0 0.0
01 03:00 Calm 0.00 Partly Cloudy FEW014TCU SCT040 68 66.2 94% 0 0.0
01 02:00 Calm 0.00 A Few Clouds FEW014TCU 68 68 100% 0 0.0
01 01:00 Calm 0.00 A Few Clouds FEW014TCU 68 68 100% 0 0.0
31 19:00 NE 5 0.00 Partly Cloudy FEW015TCU SCT280 77 73.4 89% 78 0 0.0
31 18:00 SE 6 0.00 Partly Cloudy SCT015TCU 77 73.4 89% 78 0 0.0
31 17:00 NE 6 0.00 Smoke SCT015TCU 77 73.4 89% 78 0 0.0
31 16:00 N 8 0.00 Partly Cloudy SCT015TCU 80.6 73.4 79% 85 0 0.0
31 15:00 N 8 0.00 Partly Cloudy SCT015TCU 80.6 75.2 84% 86 0 0.0
31 14:00 NE 9 0.00 Partly Cloudy SCT015TCU 80.6 75.2 84% 86 0 0.0
31 13:00 NE 8 0.00 Partly Cloudy SCT015TCU 80.6 75.2 84% 86 0 0.0
31 12:00 E 8 0.00 Partly Cloudy FEW010 SCT015TCU 80.6 73.4 79% 85 0 0.0
31 11:00 E 8 0.00 Mostly Cloudy SCT009 BKN016TCU 78.8 73.4 84% 82 0 0.0
31 10:00 E 9 0.00 Mostly Cloudy FEW008 BKN016TCU 77 73.4 89% 78 0 0.0
31 09:00 NE 7 0.00 Mostly Cloudy SCT018 BKN016TCU 75.2 73.4 94% 74 0 0.0
31 08:00 NE 8 0.00 Mostly Cloudy SCT008 BKN016TCU 75.2 73.4 94% 74 0 0.0
31 07:00 E 8 0.00 Mostly Cloudy SCT008 BKN016TCU 75.2 73.4 94% 74 0 0.0
31 04:00 E 8 0.00 Mostly Cloudy SCT009 BKN016TCU 73.4 71.6 94% 0 0.0
31 03:00 E 7 0.00 Mostly Cloudy FEW009 BKN016TCU 73.4 71.6 94% 0 0.0
31 02:00 E 7 0.00 Mostly Cloudy FEW009 BKN016TCU 75.2 73.4 94% 74 0 0.0
31 01:00 E 9 0.00 Mostly Cloudy FEW009 BKN016TCU 75.2 73.4 94% 74 0 0.0
30 18:00 NE 8 0.00 Partly Cloudy SCT016TCU 77 71.6 83% 78 0 0.0
30 17:00 E 9 0.00 Partly Cloudy SCT016TCU 78.8 73.4 84% 82 0 0.0
30 16:00 E 10 0.00 Partly Cloudy SCT016TCU 78.8 73.4 84% 82 0 0.0
30 15:00 E 12 0.00 Partly Cloudy SCT016TCU 80.6 71.6 74% 85 0 0.0
30 14:00 E 13 0.00 Partly Cloudy SCT016TCU 80.6 71.6 74% 85 0 0.0
30 13:00 E 13 0.00 Partly Cloudy SCT016TCU 78.8 69.8 74% 81 0 0.0
30 12:00 E 12 0.00 A Few Clouds FEW016TCU 78.8 73.4 84% 82 0 0.0
30 11:00 E 13 0.00 A Few Clouds FEW016TCU 77 71.6 83% 78 0 0.0
30 10:00 E 14 0.00 A Few Clouds FEW016 77 71.6 83% 78 0 0.0
30 09:00 E 13 0.00 A Few Clouds FEW016 77 71.6 83% 78 0 0.0
30 08:00 NE 12 0.00 Partly Cloudy FEW016TCU SCT040 75.2 71.6 89% 75 0 0.0
30 06:00 NE 14 0.00 Partly Cloudy SCT016TCU 75.2 69.8 83% 75 0 0.0
30 04:00 NE 14 0.00 Partly Cloudy SCT016TCU 75.2 68 78% 76 0 0.0
30 03:00 NE 13 0.00 Partly Cloudy SCT016TCU 75.2 69.8 83% 75 0 0.0
30 02:00 NE 16 0.00 A Few Clouds FEW016 75.2 68 78% 76 0 0.0
30 01:00 NE 16 0.00 Partly Cloudy FEW016 SCT040 75.2 66.2 74% 77 0 0.0
29 18:00 E 12 0.00 Mostly Cloudy FEW008 SCT015TCU BKN040 77 69.8 79% 79 0 0.0
29 17:00 E 14 0.00 Mostly Cloudy SCT007 BKN016TCU BKN040 78.8 69.8 74% 81 0 0.0
29 16:00 E 16 0.00 Mostly Cloudy SCT007 BKN016 BKN040 78.8 69.8 74% 81 0 0.0
29 15:00 E 16 0.00 Mostly Cloudy SCT015TCU BKN040 78.8 69.8 74% 81 0 0.0
29 14:00 E 15 0.00 Mostly Cloudy SCT015TCU BKN040 78.8 69.8 74% 81 0 0.0
29 13:00 E 14 G 25 0.00 Mostly Cloudy SCT008 BKN016 78.8 69.8 74% 81 0 0.0
29 12:00 E 16 G 28 0.00 Partly Cloudy SCT016TCU 78.8 69.8 74% 81 0 0.0
29 11:00 E 18 0.00 A Few Clouds FEW016TCU 78.8 69.8 74% 81 0 0.0
29 10:00 E 14 0.00 Partly Cloudy FEW009 SCT016TCU 77 68 74% 79 0 0.0
29 09:00 E 14 0.00 Partly Cloudy FEW009 SCT016TCU 75.2 69.8 83% 75 0 0.0
29 08:00 E 13 0.00 Mostly Cloudy FEW009 BKN016TCU 73.4 68 83% 0 0.0
Date Time (+13) Wind (mph) Vis. (mi.) Weather Sky Cond. Air Dwpt Max. Min. Relative Humidity Wind Chill (°F) Heat Index (°F) altimeter (in) sea level (mb) 1 hr 3 hr 6 hr
6 hour
Temperature (ºF) Pressure Precipitation (in)